sensor_id;sensor_type;location;lat;lon;timestamp;pressure;altitude;pressure_sealevel;temperature;humidity
62462;BME280;48511;38.664;-9.202;2023-02-10T00:01:39;49953.06;;;-146.63;56.21
62462;BME280;48511;38.664;-9.202;2023-02-10T00:03:40;49964.91;;;-146.63;56.29
62462;BME280;48511;38.664;-9.202;2023-02-10T00:05:41;49994.50;;;-146.63;56.52
62462;BME280;48511;38.664;-9.202;2023-02-10T00:07:42;49984.63;;;-146.63;56.53
62462;BME280;48511;38.664;-9.202;2023-02-10T00:09:42;49988.59;;;-146.63;56.55
62462;BME280;48511;38.664;-9.202;2023-02-10T00:11:43;49929.38;;;-146.63;56.35
62462;BME280;48511;38.664;-9.202;2023-02-10T00:14:00;49972.78;;;-146.63;56.76
62462;BME280;48511;38.664;-9.202;2023-02-10T00:16:02;49933.31;;;-146.63;56.78
62462;BME280;48511;38.664;-9.202;2023-02-10T00:18:03;49941.22;;;-146.63;56.89
62462;BME280;48511;38.664;-9.202;2023-02-10T00:20:04;49984.63;;;-146.63;56.77
62462;BME280;48511;38.664;-9.202;2023-02-10T00:22:05;49980.69;;;-146.63;56.62
62462;BME280;48511;38.664;-9.202;2023-02-10T00:24:06;49964.91;;;-146.63;56.66
62462;BME280;48511;38.664;-9.202;2023-02-10T00:26:09;49945.16;;;-146.63;56.88
62462;BME280;48511;38.664;-9.202;2023-02-10T00:28:10;49988.59;;;-146.63;57.22
62462;BME280;48511;38.664;-9.202;2023-02-10T00:30:12;49968.84;;;-146.63;57.25
62462;BME280;48511;38.664;-9.202;2023-02-10T00:32:13;49980.69;;;-146.63;57.21
62462;BME280;48511;38.664;-9.202;2023-02-10T00:34:16;49964.91;;;-146.63;57.46
62462;BME280;48511;38.664;-9.202;2023-02-10T00:36:19;49953.06;;;-146.63;57.72
62462;BME280;48511;38.664;-9.202;2023-02-10T00:38:19;49974.75;;;-146.63;57.78
62462;BME280;48511;38.664;-9.202;2023-02-10T00:40:20;49976.75;;;-146.63;57.89
62462;BME280;48511;38.664;-9.202;2023-02-10T00:42:21;49978.72;;;-146.63;58.15
62462;BME280;48511;38.664;-9.202;2023-02-10T00:44:22;49933.31;;;-146.63;58.07
62462;BME280;48511;38.664;-9.202;2023-02-10T00:46:23;49968.84;;;-146.63;58.09
62462;BME280;48511;38.664;-9.202;2023-02-10T00:48:24;49968.84;;;-146.63;58.12
62462;BME280;48511;38.664;-9.202;2023-02-10T00:50:25;49982.66;;;-146.63;58.02
62462;BME280;48511;38.664;-9.202;2023-02-10T00:52:25;49972.78;;;-146.63;58.23
62462;BME280;48511;38.664;-9.202;2023-02-10T00:54:26;49972.78;;;-146.63;58.08
62462;BME280;48511;38.664;-9.202;2023-02-10T00:56:27;49964.91;;;-146.63;58.15
62462;BME280;48511;38.664;-9.202;2023-02-10T00:58:28;49988.59;;;-146.63;57.84
62462;BME280;48511;38.664;-9.202;2023-02-10T01:00:30;49945.16;;;-146.63;57.92
62462;BME280;48511;38.664;-9.202;2023-02-10T01:02:31;49960.94;;;-146.63;58.24
62462;BME280;48511;38.664;-9.202;2023-02-10T01:04:32;49962.91;;;-146.63;58.46
62462;BME280;48511;38.664;-9.202;2023-02-10T01:06:33;49949.09;;;-146.63;58.26
62462;BME280;48511;38.664;-9.202;2023-02-10T01:08:34;50004.38;;;-146.63;58.74
62462;BME280;48511;38.664;-9.202;2023-02-10T01:10:35;49949.09;;;-146.63;58.77
62462;BME280;48511;38.664;-9.202;2023-02-10T01:12:36;49976.75;;;-146.63;59.06
62462;BME280;48511;38.664;-9.202;2023-02-10T01:14:36;49957.00;;;-146.63;59.26
62462;BME280;48511;38.664;-9.202;2023-02-10T01:16:37;49976.75;;;-146.63;59.30
62462;BME280;48511;38.664;-9.202;2023-02-10T01:18:39;49972.78;;;-146.63;59.32
62462;BME280;48511;38.664;-9.202;2023-02-10T01:20:41;49931.34;;;-146.63;59.19
62462;BME280;48511;38.664;-9.202;2023-02-10T01:22:42;49927.41;;;-146.63;59.17
62462;BME280;48511;38.664;-9.202;2023-02-10T01:24:43;49968.84;;;-146.63;59.27
62462;BME280;48511;38.664;-9.202;2023-02-10T01:26:44;49947.13;;;-146.63;59.26
62462;BME280;48511;38.664;-9.202;2023-02-10T01:28:46;49984.63;;;-146.63;59.16
62462;BME280;48511;38.664;-9.202;2023-02-10T01:30:47;49960.94;;;-146.63;59.13
62462;BME280;48511;38.664;-9.202;2023-02-10T01:32:52;49953.06;;;-146.63;58.95
62462;BME280;48511;38.664;-9.202;2023-02-10T01:34:53;49966.88;;;-146.63;59.47
62462;BME280;48511;38.664;-9.202;2023-02-10T01:36:54;50008.31;;;-146.63;59.40
62462;BME280;48511;38.664;-9.202;2023-02-10T01:38:55;49951.09;;;-146.63;59.89
62462;BME280;48511;38.664;-9.202;2023-02-10T01:40:56;49941.22;;;-146.63;59.39
62462;BME280;48511;38.664;-9.202;2023-02-10T01:42:56;49955.03;;;-146.63;59.19
62462;BME280;48511;38.664;-9.202;2023-02-10T01:45:36;49953.06;;;-146.63;59.19
62462;BME280;48511;38.664;-9.202;2023-02-10T01:47:38;50006.34;;;-146.63;59.38
62462;BME280;48511;38.664;-9.202;2023-02-10T01:49:43;49960.94;;;-146.63;59.46
62462;BME280;48511;38.664;-9.202;2023-02-10T01:51:50;49964.91;;;-146.63;59.33
62462;BME280;48511;38.664;-9.202;2023-02-10T01:53:52;49947.13;;;-146.63;59.58
62462;BME280;48511;38.664;-9.202;2023-02-10T01:55:55;49947.13;;;-146.63;59.61
62462;BME280;48511;38.664;-9.202;2023-02-10T01:57:58;49960.94;;;-146.63;59.76
62462;BME280;48511;38.664;-9.202;2023-02-10T02:00:02;49980.69;;;-146.63;59.89
62462;BME280;48511;38.664;-9.202;2023-02-10T02:02:12;49968.84;;;-146.63;59.55
62462;BME280;48511;38.664;-9.202;2023-02-10T02:04:13;49996.47;;;-146.63;59.69
62462;BME280;48511;38.664;-9.202;2023-02-10T02:06:14;49962.91;;;-146.63;59.95
62462;BME280;48511;38.664;-9.202;2023-02-10T02:08:21;49974.75;;;-146.63;60.27
62462;BME280;48511;38.664;-9.202;2023-02-10T02:10:29;49933.31;;;-146.63;60.70
62462;BME280;48511;38.664;-9.202;2023-02-10T02:17:30;49968.84;;;-146.63;61.50
62462;BME280;48511;38.664;-9.202;2023-02-10T02:25:34;49960.94;;;-146.63;62.39
62462;BME280;48511;38.664;-9.202;2023-02-10T02:32:26;49953.06;;;-146.63;62.78
62462;BME280;48511;38.664;-9.202;2023-02-10T02:34:49;49964.91;;;-146.63;63.01
62462;BME280;48511;38.664;-9.202;2023-02-10T02:37:05;49996.47;;;-146.63;63.54
62462;BME280;48511;38.664;-9.202;2023-02-10T02:39:06;50006.34;;;-146.63;63.62
62462;BME280;48511;38.664;-9.202;2023-02-10T02:41:08;49964.91;;;-146.63;63.88
62462;BME280;48511;38.664;-9.202;2023-02-10T02:43:09;49970.81;;;-146.63;63.95
62462;BME280;48511;38.664;-9.202;2023-02-10T02:45:23;49988.59;;;-146.63;64.30
62462;BME280;48511;38.664;-9.202;2023-02-10T02:55:00;49957.00;;;-146.63;64.87
62462;BME280;48511;38.664;-9.202;2023-02-10T02:57:45;49968.84;;;-146.63;64.85
62462;BME280;48511;38.664;-9.202;2023-02-10T02:59:53;49933.31;;;-146.63;64.99
62462;BME280;48511;38.664;-9.202;2023-02-10T03:02:00;49960.94;;;-146.63;64.82
62462;BME280;48511;38.664;-9.202;2023-02-10T03:04:02;50004.38;;;-146.63;65.17
62462;BME280;48511;38.664;-9.202;2023-02-10T03:06:04;49978.72;;;-146.63;64.87
62462;BME280;48511;38.664;-9.202;2023-02-10T03:08:04;49966.88;;;-146.63;64.59
62462;BME280;48511;38.664;-9.202;2023-02-10T03:10:05;49964.91;;;-146.63;64.69
62462;BME280;48511;38.664;-9.202;2023-02-10T03:12:06;49992.53;;;-146.63;64.80
62462;BME280;48511;38.664;-9.202;2023-02-10T03:14:07;49937.25;;;-146.63;65.12
62462;BME280;48511;38.664;-9.202;2023-02-10T03:16:08;49953.06;;;-146.63;65.14
62462;BME280;48511;38.664;-9.202;2023-02-10T03:18:08;49951.09;;;-146.63;65.05
62462;BME280;48511;38.664;-9.202;2023-02-10T03:20:10;49962.91;;;-146.63;65.24
62462;BME280;48511;38.664;-9.202;2023-02-10T03:22:11;49960.94;;;-146.63;65.58
62462;BME280;48511;38.664;-9.202;2023-02-10T03:24:12;49976.75;;;-146.63;65.65
62462;BME280;48511;38.664;-9.202;2023-02-10T03:26:12;49976.75;;;-146.63;66.00
62462;BME280;48511;38.664;-9.202;2023-02-10T03:28:13;49972.78;;;-146.63;65.79
62462;BME280;48511;38.664;-9.202;2023-02-10T03:30:14;49986.59;;;-146.63;66.33
62462;BME280;48511;38.664;-9.202;2023-02-10T03:32:19;49964.91;;;-146.63;66.27
62462;BME280;48511;38.664;-9.202;2023-02-10T03:34:21;49960.94;;;-146.63;66.10
62462;BME280;48511;38.664;-9.202;2023-02-10T03:36:21;49941.22;;;-146.63;66.66
62462;BME280;48511;38.664;-9.202;2023-02-10T03:38:22;49980.69;;;-146.63;66.67
62462;BME280;48511;38.664;-9.202;2023-02-10T03:40:23;49953.06;;;-146.63;66.82
62462;BME280;48511;38.664;-9.202;2023-02-10T03:42:23;49988.59;;;-146.63;66.72
62462;BME280;48511;38.664;-9.202;2023-02-10T03:44:25;49974.75;;;-146.63;66.68
62462;BME280;48511;38.664;-9.202;2023-02-10T03:46:26;49953.06;;;-146.63;66.17
62462;BME280;48511;38.664;-9.202;2023-02-10T03:48:27;49992.53;;;-146.63;66.35
62462;BME280;48511;38.664;-9.202;2023-02-10T03:50:32;49982.66;;;-146.63;66.77
62462;BME280;48511;38.664;-9.202;2023-02-10T03:52:32;49943.19;;;-146.63;66.88
62462;BME280;48511;38.664;-9.202;2023-02-10T03:54:33;49994.50;;;-146.63;66.82
62462;BME280;48511;38.664;-9.202;2023-02-10T03:56:34;49964.91;;;-146.63;67.38
62462;BME280;48511;38.664;-9.202;2023-02-10T03:58:35;49992.53;;;-146.63;67.14
62462;BME280;48511;38.664;-9.202;2023-02-10T04:00:36;49960.94;;;-146.63;67.13
62462;BME280;48511;38.664;-9.202;2023-02-10T04:02:37;49996.47;;;-146.63;66.89
62462;BME280;48511;38.664;-9.202;2023-02-10T04:04:37;49960.94;;;-146.63;66.98
62462;BME280;48511;38.664;-9.202;2023-02-10T04:06:38;50020.16;;;-146.63;67.11
62462;BME280;48511;38.664;-9.202;2023-02-10T04:08:39;49966.88;;;-146.63;66.97
62462;BME280;48511;38.664;-9.202;2023-02-10T04:10:40;50002.41;;;-146.63;67.07
62462;BME280;48511;38.664;-9.202;2023-02-10T04:12:41;49949.09;;;-146.63;67.45
62462;BME280;48511;38.664;-9.202;2023-02-10T04:14:41;49964.91;;;-146.63;67.12
62462;BME280;48511;38.664;-9.202;2023-02-10T04:16:42;49982.66;;;-146.63;67.98
62462;BME280;48511;38.664;-9.202;2023-02-10T04:18:43;49980.69;;;-146.63;67.65
62462;BME280;48511;38.664;-9.202;2023-02-10T04:20:44;50000.44;;;-146.63;67.87
62462;BME280;48511;38.664;-9.202;2023-02-10T04:22:44;49929.38;;;-146.63;67.97
62462;BME280;48511;38.664;-9.202;2023-02-10T04:24:45;49976.75;;;-146.63;68.33
62462;BME280;48511;38.664;-9.202;2023-02-10T04:26:46;49988.59;;;-146.63;68.11
62462;BME280;48511;38.664;-9.202;2023-02-10T04:28:47;49992.53;;;-146.63;68.55
62462;BME280;48511;38.664;-9.202;2023-02-10T04:30:55;49996.47;;;-146.63;68.47
62462;BME280;48511;38.664;-9.202;2023-02-10T04:32:56;49964.91;;;-146.63;68.68
62462;BME280;48511;38.664;-9.202;2023-02-10T04:34:57;49980.69;;;-146.63;69.05
62462;BME280;48511;38.664;-9.202;2023-02-10T04:36:58;49958.97;;;-146.63;68.75
62462;BME280;48511;38.664;-9.202;2023-02-10T04:38:58;49937.25;;;-146.63;68.74
62462;BME280;48511;38.664;-9.202;2023-02-10T04:40:59;49964.91;;;-146.63;68.90
62462;BME280;48511;38.664;-9.202;2023-02-10T04:43:00;49953.06;;;-146.63;68.80
62462;BME280;48511;38.664;-9.202;2023-02-10T04:45:01;49929.38;;;-146.63;69.27
62462;BME280;48511;38.664;-9.202;2023-02-10T04:47:02;49974.75;;;-146.63;69.22
62462;BME280;48511;38.664;-9.202;2023-02-10T04:49:02;49968.84;;;-146.63;69.19
62462;BME280;48511;38.664;-9.202;2023-02-10T04:51:08;49972.78;;;-146.63;69.10
62462;BME280;48511;38.664;-9.202;2023-02-10T04:53:09;49984.63;;;-146.63;69.39
62462;BME280;48511;38.664;-9.202;2023-02-10T04:55:10;49957.00;;;-146.63;68.96
62462;BME280;48511;38.664;-9.202;2023-02-10T04:57:11;49980.69;;;-146.63;68.97
62462;BME280;48511;38.664;-9.202;2023-02-10T04:59:12;49980.69;;;-146.63;69.56
62462;BME280;48511;38.664;-9.202;2023-02-10T05:01:13;49955.03;;;-146.63;69.53
62462;BME280;48511;38.664;-9.202;2023-02-10T05:03:14;50014.25;;;-146.63;69.64
62462;BME280;48511;38.664;-9.202;2023-02-10T05:05:14;49941.22;;;-146.63;69.63
62462;BME280;48511;38.664;-9.202;2023-02-10T05:07:15;49966.88;;;-146.63;69.76
62462;BME280;48511;38.664;-9.202;2023-02-10T05:09:16;49988.59;;;-146.63;70.02
62462;BME280;48511;38.664;-9.202;2023-02-10T05:11:17;49988.59;;;-146.63;69.81
62462;BME280;48511;38.664;-9.202;2023-02-10T05:13:19;49998.44;;;-146.63;69.73
62462;BME280;48511;38.664;-9.202;2023-02-10T05:15:21;49960.94;;;-146.63;69.41
62462;BME280;48511;38.664;-9.202;2023-02-10T05:17:22;49966.88;;;-146.63;69.36
62462;BME280;48511;38.664;-9.202;2023-02-10T05:19:22;49994.50;;;-146.63;69.16
62462;BME280;48511;38.664;-9.202;2023-02-10T05:21:23;49988.59;;;-146.63;69.22
62462;BME280;48511;38.664;-9.202;2023-02-10T05:23:24;49960.94;;;-146.63;69.28
62462;BME280;48511;38.664;-9.202;2023-02-10T05:25:25;49988.59;;;-146.63;69.34
62462;BME280;48511;38.664;-9.202;2023-02-10T05:27:26;49984.63;;;-146.63;69.16
62462;BME280;48511;38.664;-9.202;2023-02-10T05:29:27;49964.91;;;-146.63;69.17
62462;BME280;48511;38.664;-9.202;2023-02-10T05:31:28;49953.06;;;-146.63;69.16
62462;BME280;48511;38.664;-9.202;2023-02-10T05:33:29;49968.84;;;-146.63;69.10
62462;BME280;48511;38.664;-9.202;2023-02-10T05:35:29;49964.91;;;-146.63;69.21
62462;BME280;48511;38.664;-9.202;2023-02-10T05:37:30;49949.09;;;-146.63;69.44
62462;BME280;48511;38.664;-9.202;2023-02-10T05:39:31;49984.63;;;-146.63;69.16
62462;BME280;48511;38.664;-9.202;2023-02-10T05:41:32;49957.00;;;-146.63;69.45
62462;BME280;48511;38.664;-9.202;2023-02-10T05:43:32;49974.75;;;-146.63;69.49
62462;BME280;48511;38.664;-9.202;2023-02-10T05:45:33;49984.63;;;-146.63;69.65
62462;BME280;48511;38.664;-9.202;2023-02-10T05:47:34;49976.75;;;-146.63;69.59
62462;BME280;48511;38.664;-9.202;2023-02-10T05:49:35;49960.94;;;-146.63;69.47
62462;BME280;48511;38.664;-9.202;2023-02-10T05:51:36;49970.81;;;-146.63;69.40
62462;BME280;48511;38.664;-9.202;2023-02-10T05:53:37;49992.53;;;-146.63;69.64
62462;BME280;48511;38.664;-9.202;2023-02-10T05:55:38;49968.84;;;-146.63;69.19
62462;BME280;48511;38.664;-9.202;2023-02-10T05:57:38;49966.88;;;-146.63;68.77
62462;BME280;48511;38.664;-9.202;2023-02-10T05:59:39;50000.44;;;-146.63;68.93
62462;BME280;48511;38.664;-9.202;2023-02-10T06:01:42;49949.09;;;-146.63;68.93
62462;BME280;48511;38.664;-9.202;2023-02-10T06:03:43;49964.91;;;-146.63;69.00
62462;BME280;48511;38.664;-9.202;2023-02-10T06:05:44;49933.31;;;-146.63;69.22
62462;BME280;48511;38.664;-9.202;2023-02-10T06:07:45;49949.09;;;-146.63;68.82
62462;BME280;48511;38.664;-9.202;2023-02-10T06:09:46;49953.06;;;-146.63;69.17
62462;BME280;48511;38.664;-9.202;2023-02-10T06:11:47;49953.06;;;-146.63;69.13
62462;BME280;48511;38.664;-9.202;2023-02-10T06:13:48;49960.94;;;-146.63;69.06
62462;BME280;48511;38.664;-9.202;2023-02-10T06:15:48;49968.84;;;-146.63;69.02
62462;BME280;48511;38.664;-9.202;2023-02-10T06:17:49;49990.56;;;-146.63;68.93
62462;BME280;48511;38.664;-9.202;2023-02-10T06:19:50;49953.06;;;-146.63;69.07
62462;BME280;48511;38.664;-9.202;2023-02-10T06:21:50;49976.75;;;-146.63;69.45
62462;BME280;48511;38.664;-9.202;2023-02-10T06:23:51;49968.84;;;-146.63;69.00
62462;BME280;48511;38.664;-9.202;2023-02-10T06:25:52;49953.06;;;-146.63;69.15
62462;BME280;48511;38.664;-9.202;2023-02-10T06:27:54;49972.78;;;-146.63;69.25
62462;BME280;48511;38.664;-9.202;2023-02-10T06:29:55;49968.84;;;-146.63;69.21
62462;BME280;48511;38.664;-9.202;2023-02-10T06:31:56;50000.44;;;-146.63;68.84
62462;BME280;48511;38.664;-9.202;2023-02-10T06:33:56;49964.91;;;-146.63;68.66
62462;BME280;48511;38.664;-9.202;2023-02-10T06:35:57;49968.84;;;-146.63;68.99
62462;BME280;48511;38.664;-9.202;2023-02-10T06:37:58;49972.78;;;-146.63;68.76
62462;BME280;48511;38.664;-9.202;2023-02-10T06:39:59;49968.84;;;-146.63;68.99
62462;BME280;48511;38.664;-9.202;2023-02-10T06:41:59;49978.72;;;-146.63;68.62
62462;BME280;48511;38.664;-9.202;2023-02-10T06:44:01;49964.91;;;-146.63;68.37
62462;BME280;48511;38.664;-9.202;2023-02-10T06:46:02;49982.66;;;-146.63;68.42
62462;BME280;48511;38.664;-9.202;2023-02-10T06:48:02;49978.72;;;-146.63;68.11
62462;BME280;48511;38.664;-9.202;2023-02-10T06:50:04;49982.66;;;-146.63;68.00
62462;BME280;48511;38.664;-9.202;2023-02-10T06:52:05;49943.19;;;-146.63;68.14
62462;BME280;48511;38.664;-9.202;2023-02-10T06:54:05;49949.09;;;-146.63;68.45
62462;BME280;48511;38.664;-9.202;2023-02-10T06:56:06;49941.22;;;-146.63;68.56
62462;BME280;48511;38.664;-9.202;2023-02-10T06:58:07;49962.91;;;-146.63;68.32
62462;BME280;48511;38.664;-9.202;2023-02-10T07:00:10;49976.75;;;-146.63;68.20
62462;BME280;48511;38.664;-9.202;2023-02-10T07:02:12;50000.44;;;-146.63;68.03
62462;BME280;48511;38.664;-9.202;2023-02-10T07:04:13;49992.53;;;-146.63;67.68
62462;BME280;48511;38.664;-9.202;2023-02-10T07:06:14;49992.53;;;-146.63;67.56
62462;BME280;48511;38.664;-9.202;2023-02-10T07:08:14;49951.09;;;-146.63;67.43
62462;BME280;48511;38.664;-9.202;2023-02-10T07:10:15;50012.25;;;-146.63;67.13
62462;BME280;48511;38.664;-9.202;2023-02-10T07:12:16;50012.25;;;-146.63;67.22
62462;BME280;48511;38.664;-9.202;2023-02-10T07:14:17;49962.91;;;-146.63;66.85
62462;BME280;48511;38.664;-9.202;2023-02-10T07:16:17;49964.91;;;-146.63;67.16
62462;BME280;48511;38.664;-9.202;2023-02-10T07:18:18;49966.88;;;-146.63;67.06
62462;BME280;48511;38.664;-9.202;2023-02-10T07:20:19;49982.66;;;-146.63;66.71
62462;BME280;48511;38.664;-9.202;2023-02-10T07:22:20;49947.13;;;-146.63;66.22
62462;BME280;48511;38.664;-9.202;2023-02-10T07:24:22;49960.94;;;-146.63;66.36
62462;BME280;48511;38.664;-9.202;2023-02-10T07:26:23;49978.72;;;-146.63;66.41
62462;BME280;48511;38.664;-9.202;2023-02-10T07:28:23;50010.28;;;-146.63;66.59
62462;BME280;48511;38.664;-9.202;2023-02-10T07:30:24;49949.09;;;-146.63;66.25
62462;BME280;48511;38.664;-9.202;2023-02-10T07:32:25;49992.53;;;-146.63;66.18
62462;BME280;48511;38.664;-9.202;2023-02-10T07:34:26;49974.75;;;-146.63;66.29
62462;BME280;48511;38.664;-9.202;2023-02-10T07:36:27;49974.75;;;-146.63;66.43
62462;BME280;48511;38.664;-9.202;2023-02-10T07:38:29;49949.09;;;-146.63;66.50
62462;BME280;48511;38.664;-9.202;2023-02-10T07:40:29;50008.31;;;-146.63;65.76
62462;BME280;48511;38.664;-9.202;2023-02-10T07:42:30;49968.84;;;-146.63;65.08
62462;BME280;48511;38.664;-9.202;2023-02-10T07:45:04;49964.91;;;-146.63;65.00
62462;BME280;48511;38.664;-9.202;2023-02-10T07:47:05;50008.31;;;-146.63;65.04
62462;BME280;48511;38.664;-9.202;2023-02-10T07:49:06;49958.97;;;-146.63;65.08
62462;BME280;48511;38.664;-9.202;2023-02-10T07:51:07;49929.38;;;-146.63;64.65
62462;BME280;48511;38.664;-9.202;2023-02-10T07:53:07;49972.78;;;-146.63;64.55
62462;BME280;48511;38.664;-9.202;2023-02-10T07:55:08;49943.19;;;-146.63;64.53
62462;BME280;48511;38.664;-9.202;2023-02-10T07:57:09;49960.94;;;-146.63;64.20
62462;BME280;48511;38.664;-9.202;2023-02-10T07:59:10;50008.31;;;-146.63;64.02
62462;BME280;48511;38.664;-9.202;2023-02-10T08:01:11;49972.78;;;-146.63;63.60
62462;BME280;48511;38.664;-9.202;2023-02-10T08:03:13;49978.72;;;-146.63;63.79
62462;BME280;48511;38.664;-9.202;2023-02-10T08:05:14;49988.59;;;-146.63;63.34
62462;BME280;48511;38.664;-9.202;2023-02-10T08:07:15;49972.78;;;-146.63;63.18
62462;BME280;48511;38.664;-9.202;2023-02-10T08:09:21;49976.75;;;-146.63;62.71
62462;BME280;48511;38.664;-9.202;2023-02-10T08:11:23;49968.84;;;-146.63;63.29
62462;BME280;48511;38.664;-9.202;2023-02-10T08:13:24;49958.97;;;-146.63;63.23
62462;BME280;48511;38.664;-9.202;2023-02-10T08:15:25;49964.91;;;-146.63;63.21
62462;BME280;48511;38.664;-9.202;2023-02-10T08:17:28;49962.91;;;-146.63;62.96
62462;BME280;48511;38.664;-9.202;2023-02-10T08:19:29;49974.75;;;-146.63;63.00
62462;BME280;48511;38.664;-9.202;2023-02-10T08:21:29;49984.63;;;-146.63;62.73
62462;BME280;48511;38.664;-9.202;2023-02-10T08:23:31;49964.91;;;-146.63;62.06
62462;BME280;48511;38.664;-9.202;2023-02-10T08:25:32;49917.53;;;-146.63;62.23
62462;BME280;48511;38.664;-9.202;2023-02-10T08:27:33;49984.63;;;-146.63;62.38
62462;BME280;48511;38.664;-9.202;2023-02-10T08:29:36;49988.59;;;-146.63;62.32
62462;BME280;48511;38.664;-9.202;2023-02-10T08:31:40;49947.13;;;-146.63;62.06
62462;BME280;48511;38.664;-9.202;2023-02-10T08:33:41;49937.25;;;-146.63;61.54
62462;BME280;48511;38.664;-9.202;2023-02-10T08:35:42;49958.97;;;-146.63;61.39
62462;BME280;48511;38.664;-9.202;2023-02-10T08:37:49;49931.34;;;-146.63;60.96
62462;BME280;48511;38.664;-9.202;2023-02-10T08:39:50;49962.91;;;-146.63;61.04
62462;BME280;48511;38.664;-9.202;2023-02-10T08:41:51;50008.31;;;-146.63;61.11
62462;BME280;48511;38.664;-9.202;2023-02-10T08:43:52;49947.13;;;-146.63;61.09
62462;BME280;48511;38.664;-9.202;2023-02-10T08:45:59;49988.59;;;-146.63;60.76
62462;BME280;48511;38.664;-9.202;2023-02-10T08:48:00;49960.94;;;-146.63;60.39
62462;BME280;48511;38.664;-9.202;2023-02-10T08:50:01;49988.59;;;-146.63;60.46
62462;BME280;48511;38.664;-9.202;2023-02-10T08:52:02;49957.00;;;-146.63;60.86
62462;BME280;48511;38.664;-9.202;2023-02-10T08:54:03;49964.91;;;-146.63;60.95
62462;BME280;48511;38.664;-9.202;2023-02-10T08:56:06;49941.22;;;-146.63;60.50
62462;BME280;48511;38.664;-9.202;2023-02-10T08:58:07;49941.22;;;-146.63;60.44
62462;BME280;48511;38.664;-9.202;2023-02-10T09:00:09;49939.25;;;-146.63;60.01
62462;BME280;48511;38.664;-9.202;2023-02-10T09:02:13;49953.06;;;-146.63;59.69
62462;BME280;48511;38.664;-9.202;2023-02-10T09:04:14;49968.84;;;-146.63;60.32
62462;BME280;48511;38.664;-9.202;2023-02-10T09:06:30;49949.09;;;-146.63;60.07
62462;BME280;48511;38.664;-9.202;2023-02-10T09:08:33;49949.09;;;-146.63;60.38
62462;BME280;48511;38.664;-9.202;2023-02-10T09:10:34;49962.91;;;-146.63;60.42
62462;BME280;48511;38.664;-9.202;2023-02-10T09:12:34;49968.84;;;-146.63;59.95
62462;BME280;48511;38.664;-9.202;2023-02-10T09:14:40;49941.22;;;-146.63;59.99
62462;BME280;48511;38.664;-9.202;2023-02-10T09:16:41;49964.91;;;-146.63;59.72
62462;BME280;48511;38.664;-9.202;2023-02-10T09:18:42;49990.56;;;-146.63;59.57
62462;BME280;48511;38.664;-9.202;2023-02-10T09:20:43;49966.88;;;-146.63;59.38
62462;BME280;48511;38.664;-9.202;2023-02-10T09:22:43;49960.94;;;-146.63;59.27
62462;BME280;48511;38.664;-9.202;2023-02-10T09:24:46;49937.25;;;-146.63;59.21
62462;BME280;48511;38.664;-9.202;2023-02-10T09:26:48;49958.97;;;-146.63;58.96
62462;BME280;48511;38.664;-9.202;2023-02-10T09:28:49;49970.81;;;-146.63;59.14
62462;BME280;48511;38.664;-9.202;2023-02-10T09:30:49;49980.69;;;-146.63;59.55
62462;BME280;48511;38.664;-9.202;2023-02-10T09:32:50;49960.94;;;-146.63;60.12
62462;BME280;48511;38.664;-9.202;2023-02-10T09:34:51;49941.22;;;-146.63;60.37
62462;BME280;48511;38.664;-9.202;2023-02-10T09:36:51;49949.09;;;-146.63;60.84
62462;BME280;48511;38.664;-9.202;2023-02-10T09:38:56;49976.75;;;-146.63;60.92
62462;BME280;48511;38.664;-9.202;2023-02-10T09:45:35;49970.81;;;-146.63;60.40
62462;BME280;48511;38.664;-9.202;2023-02-10T09:47:52;49980.69;;;-146.63;59.44
62462;BME280;48511;38.664;-9.202;2023-02-10T09:54:53;49949.09;;;-146.63;58.00
62462;BME280;48511;38.664;-9.202;2023-02-10T09:57:05;49980.69;;;-146.63;57.55
62462;BME280;48511;38.664;-9.202;2023-02-10T09:59:15;49976.75;;;-146.63;57.74
62462;BME280;48511;38.664;-9.202;2023-02-10T10:06:33;49976.75;;;-146.63;56.54
62462;BME280;48511;38.664;-9.202;2023-02-10T10:08:53;49960.94;;;-146.63;56.00
62462;BME280;48511;38.664;-9.202;2023-02-10T10:11:03;49935.28;;;-146.63;55.37
62462;BME280;48511;38.664;-9.202;2023-02-10T10:13:21;49943.19;;;-146.63;55.23
62462;BME280;48511;38.664;-9.202;2023-02-10T10:15:27;49964.91;;;-146.63;55.48
62462;BME280;48511;38.664;-9.202;2023-02-10T10:18:03;49988.59;;;-146.63;55.20
62462;BME280;48511;38.664;-9.202;2023-02-10T10:23:05;49970.81;;;-146.63;54.45
62462;BME280;48511;38.664;-9.202;2023-02-10T10:25:49;49964.91;;;-146.63;54.76
62462;BME280;48511;38.664;-9.202;2023-02-10T10:30:54;49964.91;;;-146.63;54.97
62462;BME280;48511;38.664;-9.202;2023-02-10T10:33:04;49982.66;;;-146.63;54.74
62462;BME280;48511;38.664;-9.202;2023-02-10T10:35:33;49972.78;;;-146.63;55.08
62462;BME280;48511;38.664;-9.202;2023-02-10T10:37:36;49945.16;;;-146.63;55.53
62462;BME280;48511;38.664;-9.202;2023-02-10T10:39:49;49941.22;;;-146.63;55.36
62462;BME280;48511;38.664;-9.202;2023-02-10T10:41:53;49984.63;;;-146.63;55.24
62462;BME280;48511;38.664;-9.202;2023-02-10T10:43:56;49951.09;;;-146.63;54.72
62462;BME280;48511;38.664;-9.202;2023-02-10T10:46:12;49994.50;;;-146.63;54.41
62462;BME280;48511;38.664;-9.202;2023-02-10T10:48:29;49955.03;;;-146.63;54.68
62462;BME280;48511;38.664;-9.202;2023-02-10T10:50:37;49960.94;;;-146.63;55.00
62462;BME280;48511;38.664;-9.202;2023-02-10T10:52:44;49953.06;;;-146.63;55.00
62462;BME280;48511;38.664;-9.202;2023-02-10T10:54:47;49951.09;;;-146.63;55.30
62462;BME280;48511;38.664;-9.202;2023-02-10T10:56:51;49974.75;;;-146.63;55.95
62462;BME280;48511;38.664;-9.202;2023-02-10T10:58:53;49957.00;;;-146.63;55.42
62462;BME280;48511;38.664;-9.202;2023-02-10T11:01:01;49984.63;;;-146.63;55.43
62462;BME280;48511;38.664;-9.202;2023-02-10T11:03:04;49945.16;;;-146.63;56.00
62462;BME280;48511;38.664;-9.202;2023-02-10T11:05:12;49982.66;;;-146.63;55.60
62462;BME280;48511;38.664;-9.202;2023-02-10T11:07:19;49966.88;;;-146.63;56.26
62462;BME280;48511;38.664;-9.202;2023-02-10T11:09:49;49929.38;;;-146.63;55.69
62462;BME280;48511;38.664;-9.202;2023-02-10T11:11:50;49972.78;;;-146.63;55.95